sensor_id;sensor_type;location;lat;lon;timestamp;pressure;altitude;pressure_sealevel;temperature;humidity
66681;BME280;53575;51.366;12.350;2023-02-16T00:00:15;101182.28;;;2.63;93.41
66681;BME280;53575;51.366;12.350;2023-02-16T00:02:41;101182.75;;;2.55;93.30
66681;BME280;53575;51.366;12.350;2023-02-16T00:05:26;101176.56;;;2.50;94.28
66681;BME280;53575;51.366;12.350;2023-02-16T00:07:52;101178.88;;;2.43;93.68
66681;BME280;53575;51.366;12.350;2023-02-16T00:10:19;101194.28;;;2.63;92.86
66681;BME280;53575;51.366;12.350;2023-02-16T00:12:45;101195.06;;;2.60;93.07
66681;BME280;53575;51.366;12.350;2023-02-16T00:15:29;101189.06;;;2.61;93.05
66681;BME280;53575;51.366;12.350;2023-02-16T00:17:57;101185.03;;;2.68;92.23
66681;BME280;53575;51.366;12.350;2023-02-16T00:20:23;101183.16;;;2.64;92.30
66681;BME280;53575;51.366;12.350;2023-02-16T00:22:49;101181.44;;;2.64;92.05
66681;BME280;53575;51.366;12.350;2023-02-16T00:25:14;101179.56;;;2.60;92.11
66681;BME280;53575;51.366;12.350;2023-02-16T00:27:40;101179.69;;;2.63;92.29
66681;BME280;53575;51.366;12.350;2023-02-16T00:30:16;101178.69;;;2.60;92.60
66681;BME280;53575;51.366;12.350;2023-02-16T00:32:42;101186.34;;;2.58;92.15
66681;BME280;53575;51.366;12.350;2023-02-16T00:35:15;101179.19;;;2.51;92.58
66681;BME280;53575;51.366;12.350;2023-02-16T00:37:41;101184.16;;;2.47;92.88
66681;BME280;53575;51.366;12.350;2023-02-16T00:40:07;101185.81;;;2.44;92.55
66681;BME280;53575;51.366;12.350;2023-02-16T00:42:33;101183.09;;;2.41;92.80
66681;BME280;53575;51.366;12.350;2023-02-16T00:44:59;101182.84;;;2.35;93.06
66681;BME280;53575;51.366;12.350;2023-02-16T00:47:36;101182.97;;;2.38;92.91
66681;BME280;53575;51.366;12.350;2023-02-16T00:50:09;101175.06;;;2.34;92.58
66681;BME280;53575;51.366;12.350;2023-02-16T00:52:40;101186.69;;;2.24;93.30
66681;BME280;53575;51.366;12.350;2023-02-16T00:55:15;101182.84;;;2.14;93.41
66681;BME280;53575;51.366;12.350;2023-02-16T00:57:45;101179.03;;;2.26;92.87
66681;BME280;53575;51.366;12.350;2023-02-16T01:02:38;101189.44;;;2.29;92.49
66681;BME280;53575;51.366;12.350;2023-02-16T01:05:04;101184.03;;;2.23;92.59
66681;BME280;53575;51.366;12.350;2023-02-16T01:07:29;101172.06;;;2.25;92.40
66681;BME280;53575;51.366;12.350;2023-02-16T01:10:16;101184.28;;;2.08;93.10
66681;BME280;53575;51.366;12.350;2023-02-16T01:13:00;101183.78;;;2.16;93.47
66681;BME280;53575;51.366;12.350;2023-02-16T01:15:26;101188.75;;;2.12;93.07
66681;BME280;53575;51.366;12.350;2023-02-16T01:17:51;101190.25;;;2.07;93.01
66681;BME280;53575;51.366;12.350;2023-02-16T01:20:19;101185.72;;;2.01;93.20
66681;BME280;53575;51.366;12.350;2023-02-16T01:22:45;101183.00;;;1.98;93.44
66681;BME280;53575;51.366;12.350;2023-02-16T01:25:11;101180.69;;;2.04;93.52
66681;BME280;53575;51.366;12.350;2023-02-16T01:27:37;101181.94;;;1.93;93.87
66681;BME280;53575;51.366;12.350;2023-02-16T01:30:05;101171.50;;;1.90;94.03
66681;BME280;53575;51.366;12.350;2023-02-16T01:32:30;101173.13;;;1.88;93.78
66681;BME280;53575;51.366;12.350;2023-02-16T01:34:56;101168.84;;;1.88;93.96
66681;BME280;53575;51.366;12.350;2023-02-16T01:37:21;101168.59;;;1.82;94.25
66681;BME280;53575;51.366;12.350;2023-02-16T01:39:48;101171.72;;;1.75;94.97
66681;BME280;53575;51.366;12.350;2023-02-16T01:42:26;101172.41;;;1.71;94.81
66681;BME280;53575;51.366;12.350;2023-02-16T01:45:02;101180.00;;;1.68;94.91
66681;BME280;53575;51.366;12.350;2023-02-16T01:50:27;101174.38;;;1.77;94.48
66681;BME280;53575;51.366;12.350;2023-02-16T01:52:59;101180.34;;;1.76;94.91
66681;BME280;53575;51.366;12.350;2023-02-16T01:55:32;101180.41;;;1.77;94.89
66681;BME280;53575;51.366;12.350;2023-02-16T01:58:09;101179.34;;;1.72;95.00
66681;BME280;53575;51.366;12.350;2023-02-16T02:03:30;101172.72;;;1.79;95.02
66681;BME280;53575;51.366;12.350;2023-02-16T02:06:19;101175.94;;;1.73;95.04
66681;BME280;53575;51.366;12.350;2023-02-16T02:14:41;101166.97;;;1.84;94.83
66681;BME280;53575;51.366;12.350;2023-02-16T02:17:13;101150.50;;;1.81;94.95
66681;BME280;53575;51.366;12.350;2023-02-16T02:19:58;101158.97;;;1.78;94.73
66681;BME280;53575;51.366;12.350;2023-02-16T02:28:25;101150.50;;;1.81;94.24
66681;BME280;53575;51.366;12.350;2023-02-16T02:31:18;101147.97;;;1.82;94.21
66681;BME280;53575;51.366;12.350;2023-02-16T02:33:52;101150.69;;;1.85;93.67
66681;BME280;53575;51.366;12.350;2023-02-16T02:37:08;101147.41;;;1.89;93.60
66681;BME280;53575;51.366;12.350;2023-02-16T02:44:45;101151.38;;;1.81;94.29
66681;BME280;53575;51.366;12.350;2023-02-16T02:47:12;101149.09;;;1.68;94.24
66681;BME280;53575;51.366;12.350;2023-02-16T02:49:38;101150.16;;;1.73;94.42
66681;BME280;53575;51.366;12.350;2023-02-16T02:52:04;101151.88;;;1.73;94.07
66681;BME280;53575;51.366;12.350;2023-02-16T02:54:35;101149.53;;;1.79;93.76
66681;BME280;53575;51.366;12.350;2023-02-16T03:03:06;101154.91;;;1.83;93.31
66681;BME280;53575;51.366;12.350;2023-02-16T03:05:34;101153.31;;;1.87;93.48
66681;BME280;53575;51.366;12.350;2023-02-16T03:08:06;101154.81;;;1.82;93.27
66681;BME280;53575;51.366;12.350;2023-02-16T03:10:41;101153.91;;;1.80;93.49
66681;BME280;53575;51.366;12.350;2023-02-16T03:13:30;101147.56;;;1.92;92.87
66681;BME280;53575;51.366;12.350;2023-02-16T03:16:00;101155.66;;;1.81;93.14
66681;BME280;53575;51.366;12.350;2023-02-16T03:18:29;101148.97;;;1.86;93.16
66681;BME280;53575;51.366;12.350;2023-02-16T03:21:14;101150.50;;;1.81;93.21
66681;BME280;53575;51.366;12.350;2023-02-16T03:24:04;101147.84;;;1.79;93.09
66681;BME280;53575;51.366;12.350;2023-02-16T03:26:51;101139.34;;;1.82;92.97
66681;BME280;53575;51.366;12.350;2023-02-16T03:29:36;101148.59;;;1.77;93.37
66681;BME280;53575;51.366;12.350;2023-02-16T03:32:02;101141.56;;;1.73;93.17
66681;BME280;53575;51.366;12.350;2023-02-16T03:34:28;101146.94;;;1.79;94.44
66681;BME280;53575;51.366;12.350;2023-02-16T03:36:56;101142.28;;;1.70;93.70
66681;BME280;53575;51.366;12.350;2023-02-16T03:39:24;101148.81;;;1.62;93.90
66681;BME280;53575;51.366;12.350;2023-02-16T03:41:52;101154.25;;;1.68;94.18
66681;BME280;53575;51.366;12.350;2023-02-16T03:44:18;101146.25;;;1.62;93.87
66681;BME280;53575;51.366;12.350;2023-02-16T03:46:44;101154.84;;;1.62;95.07
66681;BME280;53575;51.366;12.350;2023-02-16T03:49:10;101155.34;;;1.54;94.46
66681;BME280;53575;51.366;12.350;2023-02-16T03:51:36;101159.88;;;1.59;94.60
66681;BME280;53575;51.366;12.350;2023-02-16T03:54:01;101157.38;;;1.61;94.88
66681;BME280;53575;51.366;12.350;2023-02-16T03:56:27;101153.44;;;1.50;95.22
66681;BME280;53575;51.366;12.350;2023-02-16T03:58:52;101146.41;;;1.45;96.09
66681;BME280;53575;51.366;12.350;2023-02-16T04:01:18;101153.84;;;1.39;95.98
66681;BME280;53575;51.366;12.350;2023-02-16T04:03:43;101151.28;;;1.39;95.71
66681;BME280;53575;51.366;12.350;2023-02-16T04:06:09;101150.59;;;1.43;95.07
66681;BME280;53575;51.366;12.350;2023-02-16T04:08:34;101152.09;;;1.38;95.88
66681;BME280;53575;51.366;12.350;2023-02-16T04:11:00;101155.88;;;1.46;95.94
66681;BME280;53575;51.366;12.350;2023-02-16T04:13:45;101155.75;;;1.43;96.68
66681;BME280;53575;51.366;12.350;2023-02-16T04:16:11;101163.31;;;1.40;95.91
66681;BME280;53575;51.366;12.350;2023-02-16T04:18:36;101163.66;;;1.29;95.52
66681;BME280;53575;51.366;12.350;2023-02-16T04:21:02;101159.13;;;1.23;96.85
66681;BME280;53575;51.366;12.350;2023-02-16T04:23:27;101161.09;;;1.29;96.23
66681;BME280;53575;51.366;12.350;2023-02-16T04:25:52;101165.06;;;1.22;96.75
66681;BME280;53575;51.366;12.350;2023-02-16T04:28:18;101168.13;;;1.13;97.50
66681;BME280;53575;51.366;12.350;2023-02-16T04:30:43;101154.50;;;1.16;96.85
66681;BME280;53575;51.366;12.350;2023-02-16T04:33:09;101159.56;;;1.14;97.19
66681;BME280;53575;51.366;12.350;2023-02-16T04:35:34;101157.50;;;1.25;96.92
66681;BME280;53575;51.366;12.350;2023-02-16T04:38:00;101157.63;;;1.09;97.58
66681;BME280;53575;51.366;12.350;2023-02-16T04:40:25;101156.53;;;1.04;97.80
66681;BME280;53575;51.366;12.350;2023-02-16T04:42:50;101160.19;;;1.09;98.34
66681;BME280;53575;51.366;12.350;2023-02-16T04:45:16;101153.56;;;1.14;98.85
66681;BME280;53575;51.366;12.350;2023-02-16T04:47:41;101148.88;;;1.05;98.63
66681;BME280;53575;51.366;12.350;2023-02-16T04:50:07;101160.66;;;1.00;98.51
66681;BME280;53575;51.366;12.350;2023-02-16T04:52:33;101149.59;;;1.03;98.88
66681;BME280;53575;51.366;12.350;2023-02-16T04:54:59;101155.03;;;1.09;98.75
66681;BME280;53575;51.366;12.350;2023-02-16T04:57:24;101156.66;;;1.07;98.43
66681;BME280;53575;51.366;12.350;2023-02-16T04:59:50;101157.88;;;0.95;99.28
66681;BME280;53575;51.366;12.350;2023-02-16T05:02:15;101157.47;;;1.06;99.36
66681;BME280;53575;51.366;12.350;2023-02-16T05:04:41;101161.38;;;1.15;99.40
66681;BME280;53575;51.366;12.350;2023-02-16T05:07:06;101163.66;;;0.91;99.99
66681;BME280;53575;51.366;12.350;2023-02-16T05:09:32;101164.63;;;0.93;100.00
66681;BME280;53575;51.366;12.350;2023-02-16T05:11:57;101167.56;;;1.01;100.00
66681;BME280;53575;51.366;12.350;2023-02-16T05:14:41;101172.88;;;0.86;99.74
66681;BME280;53575;51.366;12.350;2023-02-16T05:17:14;101172.22;;;0.90;100.00
66681;BME280;53575;51.366;12.350;2023-02-16T05:19:42;101163.25;;;0.82;100.00
66681;BME280;53575;51.366;12.350;2023-02-16T05:22:09;101163.66;;;0.91;100.00
66681;BME280;53575;51.366;12.350;2023-02-16T05:24:35;101163.47;;;0.87;100.00
66681;BME280;53575;51.366;12.350;2023-02-16T05:27:02;101165.66;;;0.97;100.00
66681;BME280;53575;51.366;12.350;2023-02-16T05:29:28;101158.81;;;0.97;99.91
66681;BME280;53575;51.366;12.350;2023-02-16T05:31:53;101158.00;;;0.98;100.00
66681;BME280;53575;51.366;12.350;2023-02-16T05:34:18;101145.56;;;1.08;100.00
66681;BME280;53575;51.366;12.350;2023-02-16T05:36:44;101136.72;;;1.03;99.68
66681;BME280;53575;51.366;12.350;2023-02-16T05:39:09;101135.66;;;0.97;100.00
66681;BME280;53575;51.366;12.350;2023-02-16T05:41:35;101131.47;;;1.00;100.00
66681;BME280;53575;51.366;12.350;2023-02-16T05:44:02;101132.41;;;1.02;100.00
66681;BME280;53575;51.366;12.350;2023-02-16T05:46:30;101128.63;;;0.93;100.00
66681;BME280;53575;51.366;12.350;2023-02-16T05:48:57;101139.91;;;0.78;100.00
66681;BME280;53575;51.366;12.350;2023-02-16T05:51:23;101143.50;;;0.81;100.00
66681;BME280;53575;51.366;12.350;2023-02-16T05:53:49;101141.28;;;0.71;100.00
66681;BME280;53575;51.366;12.350;2023-02-16T05:56:15;101142.97;;;0.88;100.00
66681;BME280;53575;51.366;12.350;2023-02-16T05:58:41;101145.06;;;0.97;100.00
66681;BME280;53575;51.366;12.350;2023-02-16T06:01:06;101143.31;;;0.96;100.00
66681;BME280;53575;51.366;12.350;2023-02-16T06:03:32;101142.50;;;0.97;100.00
66681;BME280;53575;51.366;12.350;2023-02-16T06:05:59;101139.75;;;1.12;100.00
66681;BME280;53575;51.366;12.350;2023-02-16T06:08:25;101148.00;;;1.05;100.00
66681;BME280;53575;51.366;12.350;2023-02-16T06:10:52;101147.38;;;1.10;100.00
66681;BME280;53575;51.366;12.350;2023-02-16T06:13:18;101148.75;;;1.21;100.00
66681;BME280;53575;51.366;12.350;2023-02-16T06:15:45;101152.44;;;1.27;98.78
66681;BME280;53575;51.366;12.350;2023-02-16T06:18:11;101149.22;;;1.13;99.30
66681;BME280;53575;51.366;12.350;2023-02-16T06:20:37;101150.59;;;1.24;99.29
66681;BME280;53575;51.366;12.350;2023-02-16T06:23:05;101155.91;;;1.09;99.49
66681;BME280;53575;51.366;12.350;2023-02-16T06:25:31;101155.00;;;1.07;99.63
66681;BME280;53575;51.366;12.350;2023-02-16T06:27:57;101161.69;;;1.04;100.00
66681;BME280;53575;51.366;12.350;2023-02-16T06:30:23;101157.56;;;1.07;100.00
66681;BME280;53575;51.366;12.350;2023-02-16T06:32:49;101165.28;;;1.07;100.00
66681;BME280;53575;51.366;12.350;2023-02-16T06:35:14;101157.56;;;1.07;100.00
66681;BME280;53575;51.366;12.350;2023-02-16T06:37:40;101161.94;;;1.10;100.00
66681;BME280;53575;51.366;12.350;2023-02-16T06:40:06;101161.28;;;1.14;100.00
66681;BME280;53575;51.366;12.350;2023-02-16T06:42:34;101157.16;;;1.17;100.00
66681;BME280;53575;51.366;12.350;2023-02-16T06:45:00;101144.22;;;1.16;99.80
66681;BME280;53575;51.366;12.350;2023-02-16T06:47:25;101146.41;;;1.26;99.97
66681;BME280;53575;51.366;12.350;2023-02-16T06:49:51;101143.41;;;1.36;99.55
66681;BME280;53575;51.366;12.350;2023-02-16T06:52:16;101139.03;;;1.34;99.38
66681;BME280;53575;51.366;12.350;2023-02-16T06:54:42;101136.69;;;1.40;98.80
66681;BME280;53575;51.366;12.350;2023-02-16T06:57:07;101134.94;;;1.39;99.62
66681;BME280;53575;51.366;12.350;2023-02-16T06:59:32;101139.06;;;1.35;99.88
66681;BME280;53575;51.366;12.350;2023-02-16T07:01:58;101143.00;;;1.46;98.69
66681;BME280;53575;51.366;12.350;2023-02-16T07:04:23;101141.03;;;1.41;99.67
66681;BME280;53575;51.366;12.350;2023-02-16T07:06:49;101141.66;;;1.35;99.44
66681;BME280;53575;51.366;12.350;2023-02-16T07:09:14;101150.53;;;1.42;100.00
66681;BME280;53575;51.366;12.350;2023-02-16T07:11:39;101147.09;;;1.41;100.00
66681;BME280;53575;51.366;12.350;2023-02-16T07:14:05;101142.28;;;1.49;98.95
66681;BME280;53575;51.366;12.350;2023-02-16T07:16:30;101144.50;;;1.41;99.48
66681;BME280;53575;51.366;12.350;2023-02-16T07:18:56;101151.47;;;1.44;99.05
66681;BME280;53575;51.366;12.350;2023-02-16T07:21:21;101156.56;;;1.62;98.69
66681;BME280;53575;51.366;12.350;2023-02-16T07:23:47;101157.44;;;1.62;98.77
66681;BME280;53575;51.366;12.350;2023-02-16T07:26:12;101153.44;;;1.69;98.16
66681;BME280;53575;51.366;12.350;2023-02-16T07:28:38;101149.53;;;1.79;97.68
66681;BME280;53575;51.366;12.350;2023-02-16T07:31:11;101157.25;;;1.79;97.57
66681;BME280;53575;51.366;12.350;2023-02-16T07:33:37;101157.47;;;1.83;97.89
66681;BME280;53575;51.366;12.350;2023-02-16T07:36:03;101155.69;;;1.82;97.98
66681;BME280;53575;51.366;12.350;2023-02-16T07:38:30;101155.28;;;1.92;96.84
66681;BME280;53575;51.366;12.350;2023-02-16T07:40:56;101153.59;;;1.93;96.72
66681;BME280;53575;51.366;12.350;2023-02-16T07:43:22;101147.03;;;2.01;96.32
66681;BME280;53575;51.366;12.350;2023-02-16T07:45:48;101143.97;;;2.10;96.16
66681;BME280;53575;51.366;12.350;2023-02-16T07:48:14;101137.81;;;2.06;96.04
66681;BME280;53575;51.366;12.350;2023-02-16T07:50:40;101138.25;;;2.17;95.54
66681;BME280;53575;51.366;12.350;2023-02-16T07:53:05;101145.38;;;2.23;95.65
66681;BME280;53575;51.366;12.350;2023-02-16T07:55:31;101138.63;;;2.26;94.73
66681;BME280;53575;51.366;12.350;2023-02-16T07:57:57;101138.69;;;2.28;94.65
66681;BME280;53575;51.366;12.350;2023-02-16T08:00:25;101148.19;;;2.29;94.83
66681;BME280;53575;51.366;12.350;2023-02-16T08:02:51;101141.69;;;2.38;94.43
66681;BME280;53575;51.366;12.350;2023-02-16T08:05:17;101138.44;;;2.42;94.02
66681;BME280;53575;51.366;12.350;2023-02-16T08:07:42;101134.53;;;2.52;93.70
66681;BME280;53575;51.366;12.350;2023-02-16T08:10:08;101127.53;;;2.50;93.66
66681;BME280;53575;51.366;12.350;2023-02-16T08:12:34;101142.31;;;2.54;93.92
66681;BME280;53575;51.366;12.350;2023-02-16T08:15:00;101143.56;;;2.63;93.65
66681;BME280;53575;51.366;12.350;2023-02-16T08:17:27;101134.16;;;2.65;93.41
66681;BME280;53575;51.366;12.350;2023-02-16T08:19:52;101132.72;;;2.72;93.14
66681;BME280;53575;51.366;12.350;2023-02-16T08:22:17;101131.34;;;2.82;92.87
66681;BME280;53575;51.366;12.350;2023-02-16T08:24:43;101137.38;;;2.82;93.08
66681;BME280;53575;51.366;12.350;2023-02-16T08:27:08;101138.38;;;2.86;93.33
66681;BME280;53575;51.366;12.350;2023-02-16T08:29:35;101134.91;;;3.08;92.34
66681;BME280;53575;51.366;12.350;2023-02-16T08:32:01;101138.75;;;3.17;91.52
66681;BME280;53575;51.366;12.350;2023-02-16T08:34:32;101141.19;;;3.14;91.47
66681;BME280;53575;51.366;12.350;2023-02-16T08:36:58;101145.22;;;3.30;90.42
66681;BME280;53575;51.366;12.350;2023-02-16T08:39:27;101141.06;;;3.34;90.45
66681;BME280;53575;51.366;12.350;2023-02-16T08:41:54;101145.53;;;3.39;89.74
66681;BME280;53575;51.366;12.350;2023-02-16T08:44:22;101154.47;;;3.48;89.42
66681;BME280;53575;51.366;12.350;2023-02-16T08:46:48;101153.81;;;3.53;89.26
66681;BME280;53575;51.366;12.350;2023-02-16T08:49:16;101147.19;;;3.61;89.07
66681;BME280;53575;51.366;12.350;2023-02-16T08:51:49;101146.47;;;3.65;89.37
66681;BME280;53575;51.366;12.350;2023-02-16T08:54:20;101152.16;;;3.79;88.39
66681;BME280;53575;51.366;12.350;2023-02-16T08:56:47;101151.53;;;3.86;87.81
66681;BME280;53575;51.366;12.350;2023-02-16T08:59:16;101159.47;;;3.92;87.62
66681;BME280;53575;51.366;12.350;2023-02-16T09:01:41;101150.34;;;4.02;87.15
66681;BME280;53575;51.366;12.350;2023-02-16T09:04:08;101150.75;;;4.14;86.89
66681;BME280;53575;51.366;12.350;2023-02-16T09:06:38;101154.47;;;4.23;86.50
66681;BME280;53575;51.366;12.350;2023-02-16T09:09:05;101150.28;;;4.26;86.05
66681;BME280;53575;51.366;12.350;2023-02-16T09:11:31;101142.03;;;4.38;85.36
66681;BME280;53575;51.366;12.350;2023-02-16T09:13:57;101145.47;;;4.38;85.14
66681;BME280;53575;51.366;12.350;2023-02-16T09:16:23;101150.97;;;4.48;84.81
66681;BME280;53575;51.366;12.350;2023-02-16T09:18:52;101139.91;;;4.53;84.55
66681;BME280;53575;51.366;12.350;2023-02-16T09:21:23;101133.28;;;4.61;84.43
66681;BME280;53575;51.366;12.350;2023-02-16T09:23:50;101135.28;;;4.70;83.97
66681;BME280;53575;51.366;12.350;2023-02-16T09:26:20;101137.47;;;4.85;83.87
66681;BME280;53575;51.366;12.350;2023-02-16T09:28:47;101152.31;;;4.91;83.22
66681;BME280;53575;51.366;12.350;2023-02-16T09:31:29;101150.06;;;5.03;83.03
66681;BME280;53575;51.366;12.350;2023-02-16T09:33:58;101150.50;;;5.17;82.21
66681;BME280;53575;51.366;12.350;2023-02-16T09:36:24;101153.31;;;5.24;82.20
66681;BME280;53575;51.366;12.350;2023-02-16T09:38:52;101141.25;;;5.26;81.78
66681;BME280;53575;51.366;12.350;2023-02-16T09:46:56;101143.63;;;5.49;80.95
66681;BME280;53575;51.366;12.350;2023-02-16T09:49:39;101140.41;;;5.57;80.94
66681;BME280;53575;51.366;12.350;2023-02-16T09:52:39;101136.53;;;5.73;80.17
66681;BME280;53575;51.366;12.350;2023-02-16T09:55:17;101131.47;;;5.79;80.43
66681;BME280;53575;51.366;12.350;2023-02-16T10:05:55;101129.75;;;6.12;78.92
66681;BME280;53575;51.366;12.350;2023-02-16T10:08:28;101132.53;;;6.19;78.36
66681;BME280;53575;51.366;12.350;2023-02-16T10:13:59;101131.13;;;6.32;78.55
66681;BME280;53575;51.366;12.350;2023-02-16T10:16:31;101123.56;;;6.41;78.58
66681;BME280;53575;51.366;12.350;2023-02-16T10:19:01;101122.22;;;6.57;78.16
66681;BME280;53575;51.366;12.350;2023-02-16T10:21:28;101131.25;;;6.74;77.47
66681;BME280;53575;51.366;12.350;2023-02-16T10:24:04;101130.41;;;6.75;76.99
66681;BME280;53575;51.366;12.350;2023-02-16T10:29:05;101122.03;;;6.89;76.87
66681;BME280;53575;51.366;12.350;2023-02-16T10:31:41;101115.44;;;7.04;76.65
66681;BME280;53575;51.366;12.350;2023-02-16T10:37:33;101118.03;;;7.03;76.36
66681;BME280;53575;51.366;12.350;2023-02-16T10:42:23;101114.81;;;7.16;76.14
66681;BME280;53575;51.366;12.350;2023-02-16T10:45:01;101116.00;;;7.32;76.00
66681;BME280;53575;51.366;12.350;2023-02-16T10:47:36;101117.00;;;7.39;75.53
66681;BME280;53575;51.366;12.350;2023-02-16T10:50:05;101123.22;;;7.47;75.65
66681;BME280;53575;51.366;12.350;2023-02-16T10:52:35;101115.56;;;7.53;75.55
66681;BME280;53575;51.366;12.350;2023-02-16T10:55:02;101110.44;;;7.57;75.09
66681;BME280;53575;51.366;12.350;2023-02-16T10:57:30;101107.81;;;7.56;74.67
66681;BME280;53575;51.366;12.350;2023-02-16T11:00:02;101109.72;;;7.65;74.89
66681;BME280;53575;51.366;12.350;2023-02-16T11:02:37;101105.50;;;7.71;74.63
66681;BME280;53575;51.366;12.350;2023-02-16T11:07:53;101105.78;;;7.87;74.01
66681;BME280;53575;51.366;12.350;2023-02-16T11:13:06;101099.97;;;8.01;73.76
66681;BME280;53575;51.366;12.350;2023-02-16T11:15:41;101102.50;;;7.98;73.94
66681;BME280;53575;51.366;12.350;2023-02-16T11:18:27;101093.84;;;8.01;74.27
66681;BME280;53575;51.366;12.350;2023-02-16T11:20:53;101095.66;;;8.05;73.35
66681;BME280;53575;51.366;12.350;2023-02-16T11:23:31;101096.56;;;8.07;73.36
66681;BME280;53575;51.366;12.350;2023-02-16T11:26:24;101093.28;;;8.17;73.14
66681;BME280;53575;51.366;12.350;2023-02-16T11:28:49;101081.94;;;8.14;73.09
66681;BME280;53575;51.366;12.350;2023-02-16T11:31:30;101082.00;;;8.18;73.53
66681;BME280;53575;51.366;12.350;2023-02-16T11:36:37;101070.06;;;8.33;72.73
66681;BME280;53575;51.366;12.350;2023-02-16T11:39:13;101075.13;;;8.23;72.82
66681;BME280;53575;51.366;12.350;2023-02-16T11:41:44;101073.69;;;8.41;72.24
66681;BME280;53575;51.366;12.350;2023-02-16T11:44:42;101068.56;;;8.47;72.25
66681;BME280;53575;51.366;12.350;2023-02-16T11:47:27;101061.78;;;8.58;71.73
66681;BME280;53575;51.366;12.350;2023-02-16T11:52:44;101065.47;;;8.72;71.33
66681;BME280;53575;51.366;12.350;2023-02-16T11:55:22;101060.41;;;8.85;71.17
66681;BME280;53575;51.366;12.350;2023-02-16T11:57:51;101063.88;;;8.82;70.94
66681;BME280;53575;51.366;12.350;2023-02-16T12:00:22;101058.75;;;8.90;70.62
66681;BME280;53575;51.366;12.350;2023-02-16T12:05:26;101051.16;;;9.10;70.30
66681;BME280;53575;51.366;12.350;2023-02-16T12:08:45;101040.88;;;9.20;69.38
66681;BME280;53575;51.366;12.350;2023-02-16T12:19:20;101037.56;;;9.38;69.51
66681;BME280;53575;51.366;12.350;2023-02-16T12:21:52;101042.91;;;9.52;69.05
66681;BME280;53575;51.366;12.350;2023-02-16T12:36:31;101007.75;;;10.14;67.32
66681;BME280;53575;51.366;12.350;2023-02-16T12:39:16;101007.75;;;10.14;67.39
66681;BME280;53575;51.366;12.350;2023-02-16T12:45:00;101007.91;;;10.34;66.33
66681;BME280;53575;51.366;12.350;2023-02-16T12:47:32;101008.84;;;10.45;66.85
66681;BME280;53575;51.366;12.350;2023-02-16T12:50:02;101007.16;;;10.53;66.18
66681;BME280;53575;51.366;12.350;2023-02-16T12:52:34;101012.47;;;10.74;66.43
66681;BME280;53575;51.366;12.350;2023-02-16T12:55:26;100999.47;;;10.85;65.38
66681;BME280;53575;51.366;12.350;2023-02-16T12:58:09;101002.06;;;10.81;63.69
66681;BME280;53575;51.366;12.350;2023-02-16T13:00:51;100999.41;;;10.73;63.30
66681;BME280;53575;51.366;12.350;2023-02-16T13:06:10;100992.44;;;10.80;63.79
66681;BME280;53575;51.366;12.350;2023-02-16T13:09:31;100989.88;;;10.90;63.52
66681;BME280;53575;51.366;12.350;2023-02-16T13:11:34;100986.44;;;11.08;62.98
66681;BME280;53575;51.366;12.350;2023-02-16T13:14:03;100981.22;;;11.08;61.89
66681;BME280;53575;51.366;12.350;2023-02-16T13:16:50;100979.47;;;11.10;62.16
66681;BME280;53575;51.366;12.350;2023-02-16T13:19:17;100983.84;;;11.17;62.14
66681;BME280;53575;51.366;12.350;2023-02-16T13:24:52;100997.78;;;11.04;61.09
66681;BME280;53575;51.366;12.350;2023-02-16T13:27:31;100985.50;;;10.91;60.50
66681;BME280;53575;51.366;12.350;2023-02-16T13:36:00;100997.78;;;11.07;59.62
66681;BME280;53575;51.366;12.350;2023-02-16T13:41:33;100994.31;;;11.11;59.86
66681;BME280;53575;51.366;12.350;2023-02-16T13:44:40;100996.06;;;11.15;60.01
66681;BME280;53575;51.366;12.350;2023-02-16T13:47:11;100988.22;;;11.21;60.27
66681;BME280;53575;51.366;12.350;2023-02-16T13:49:40;100984.78;;;11.38;60.19
66681;BME280;53575;51.366;12.350;2023-02-16T13:52:29;100987.41;;;11.41;59.80
66681;BME280;53575;51.366;12.350;2023-02-16T13:54:58;100973.41;;;11.28;58.04
66681;BME280;53575;51.366;12.350;2023-02-16T14:00:41;100994.28;;;11.02;57.50
66681;BME280;53575;51.366;12.350;2023-02-16T14:03:34;100995.03;;;10.75;57.91
66681;BME280;53575;51.366;12.350;2023-02-16T14:06:31;100995.88;;;10.62;60.98
66681;BME280;53575;51.366;12.350;2023-02-16T14:14:35;101000.28;;;10.73;61.67
66681;BME280;53575;51.366;12.350;2023-02-16T14:20:04;100995.16;;;11.10;62.08
66681;BME280;53575;51.366;12.350;2023-02-16T14:27:59;100987.22;;;10.77;62.31
66681;BME280;53575;51.366;12.350;2023-02-16T14:35:38;100988.84;;;10.50;62.31
66681;BME280;53575;51.366;12.350;2023-02-16T14:38:17;100986.13;;;10.33;62.72
66681;BME280;53575;51.366;12.350;2023-02-16T14:40:53;100985.28;;;10.37;62.26
66681;BME280;53575;51.366;12.350;2023-02-16T14:43:43;100989.72;;;10.46;60.58
66681;BME280;53575;51.366;12.350;2023-02-16T14:54:26;100994.91;;;10.49;59.82
66681;BME280;53575;51.366;12.350;2023-02-16T14:59:23;100988.72;;;10.29;60.95
66681;BME280;53575;51.366;12.350;2023-02-16T15:01:52;100985.13;;;10.14;61.12
66681;BME280;53575;51.366;12.350;2023-02-16T15:04:32;100995.56;;;10.13;61.15
66681;BME280;53575;51.366;12.350;2023-02-16T15:07:02;100993.88;;;10.22;61.58
66681;BME280;53575;51.366;12.350;2023-02-16T15:09:31;100987.84;;;10.25;61.63
66681;BME280;53575;51.366;12.350;2023-02-16T15:20:16;100989.44;;;10.11;63.25
66681;BME280;53575;51.366;12.350;2023-02-16T15:22:49;100978.06;;;9.98;63.56
66681;BME280;53575;51.366;12.350;2023-02-16T15:25:27;100979.75;;;9.88;63.93
66681;BME280;53575;51.366;12.350;2023-02-16T15:27:57;100981.47;;;9.91;64.37
66681;BME280;53575;51.366;12.350;2023-02-16T15:30:26;100969.28;;;9.87;64.45
66681;BME280;53575;51.366;12.350;2023-02-16T15:32:56;100971.00;;;9.86;64.61